Terminal Aerodrome Forecast
Issued by NWS

Home | Current Version | Previous Version | Graphics & Text | Print | Product List | Glossary On
Versions: 1 2 3 4 5 6 7 8 9 10 11 12 13 14 15 16
128
FTUS43 KMPX 220530
TAFRNH
TAF
KRNH 220530Z 2206/2306 12009KT P6SM -SHRA SCT015 OVC050
      TEMPO 2206/2208 3SM TSRA BKN015CB
     FM220800 08007KT 6SM BR VCSH BKN010 OVC025
     FM221100 05006KT 5SM BR BKN005 OVC010
     FM221700 03007KT P6SM SCT010 OVC020
     FM230000 04008KT P6SM VCSH OVC025=

USA.gov is the U.S. government's official web portal to all federal, state and local government web resources and services.